createdAt,value
2019-03-29T00:01:42.523Z,15.40
2019-03-29T00:04:11.448Z,15.80
2019-03-29T00:06:40.326Z,15.78
2019-03-29T00:09:09.252Z,13.53
2019-03-29T00:11:38.233Z,15.53
2019-03-29T00:14:07.905Z,15.45
2019-03-29T00:16:36.762Z,17.80
2019-03-29T00:19:05.703Z,17.02
2019-03-29T00:21:34.505Z,15.15
2019-03-29T00:24:07.147Z,17.95
2019-03-29T00:26:34.154Z,18.02
2019-03-29T00:29:04.040Z,14.65
2019-03-29T00:31:32.987Z,16.90
2019-03-29T00:34:01.856Z,14.90
2019-03-29T00:36:30.670Z,13.78
2019-03-29T00:38:59.547Z,15.15
2019-03-29T00:41:28.886Z,15.45
2019-03-29T00:43:57.675Z,13.60
2019-03-29T00:46:26.581Z,17.17
2019-03-29T00:48:55.388Z,15.32
2019-03-29T00:51:24.977Z,16.95
2019-03-29T00:53:54.107Z,17.20
2019-03-29T00:56:22.912Z,17.15
2019-03-29T00:58:51.739Z,15.80
2019-03-29T01:01:20.631Z,20.30
2019-03-29T01:03:52.265Z,17.05
2019-03-29T01:06:21.157Z,15.78
2019-03-29T01:08:50.049Z,14.90
2019-03-29T01:11:18.852Z,14.45
2019-03-29T01:13:47.727Z,16.17
2019-03-29T01:16:16.646Z,16.63
2019-03-29T01:18:45.537Z,19.17
2019-03-29T01:21:14.571Z,13.90
2019-03-29T01:23:43.439Z,18.00
2019-03-29T01:26:12.345Z,16.60
2019-03-29T01:28:41.147Z,18.37
2019-03-29T01:31:10.144Z,15.83
2019-03-29T01:33:39.050Z,17.07
2019-03-29T01:36:07.922Z,17.42
2019-03-29T01:38:36.753Z,21.60
2019-03-29T01:41:06.106Z,20.23
2019-03-29T01:43:35.287Z,17.70
2019-03-29T01:46:04.871Z,14.00
2019-03-29T01:48:33.696Z,16.85
2019-03-29T01:51:02.492Z,15.23
2019-03-29T01:53:31.396Z,14.90
2019-03-29T01:56:00.265Z,12.80
2019-03-29T01:58:29.142Z,16.77
2019-03-29T02:00:57.938Z,12.90
2019-03-29T02:03:26.767Z,17.32
2019-03-29T02:05:55.717Z,15.17
2019-03-29T02:08:35.118Z,13.48
2019-03-29T02:10:57.572Z,10.23
2019-03-29T02:13:26.390Z,16.82
2019-03-29T02:15:55.261Z,12.28
2019-03-29T02:18:24.152Z,15.03
2019-03-29T02:20:52.960Z,13.65
2019-03-29T02:23:22.900Z,13.57
2019-03-29T02:25:51.712Z,14.10
2019-03-29T02:28:20.498Z,15.93
2019-03-29T02:30:49.400Z,13.98
2019-03-29T02:33:18.254Z,11.45
2019-03-29T02:35:47.160Z,12.65
2019-03-29T02:38:16.042Z,14.03
2019-03-29T02:40:44.848Z,13.40
2019-03-29T02:43:13.666Z,15.60
2019-03-29T02:45:42.472Z,12.18
2019-03-29T02:48:11.284Z,16.32
2019-03-29T02:50:40.103Z,11.05
2019-03-29T02:53:08.926Z,12.93
2019-03-29T02:55:37.836Z,14.35
2019-03-29T02:58:06.643Z,13.03
2019-03-29T03:00:35.548Z,14.10
2019-03-29T03:03:04.563Z,14.98
2019-03-29T03:05:33.415Z,12.60
2019-03-29T03:08:05.275Z,13.30
2019-03-29T03:10:34.152Z,12.95
2019-03-29T03:13:03.077Z,11.75
2019-03-29T03:15:31.952Z,15.53
2019-03-29T03:18:00.750Z,11.33
2019-03-29T03:20:29.576Z,12.68
2019-03-29T03:22:58.479Z,13.65
2019-03-29T03:25:27.270Z,11.70
2019-03-29T03:27:56.425Z,16.30
2019-03-29T03:30:31.131Z,14.20
2019-03-29T03:33:00.012Z,11.20
2019-03-29T03:35:28.900Z,12.73
2019-03-29T03:37:57.869Z,17.50
2019-03-29T03:40:26.821Z,13.13
2019-03-29T03:42:55.645Z,15.00
2019-03-29T03:45:24.566Z,12.98
2019-03-29T03:47:53.483Z,11.25
2019-03-29T03:50:31.971Z,11.68
2019-03-29T03:53:00.889Z,12.15
2019-03-29T03:55:30.053Z,12.93
2019-03-29T03:57:59.876Z,12.10
2019-03-29T04:00:32.725Z,15.10
2019-03-29T04:03:01.644Z,11.93
2019-03-29T04:05:30.517Z,9.90
2019-03-29T04:07:59.610Z,14.18
2019-03-29T04:10:28.669Z,12.00
2019-03-29T04:12:57.726Z,11.63
2019-03-29T04:15:26.712Z,14.33
2019-03-29T04:17:55.792Z,11.83
2019-03-29T04:20:24.834Z,10.35
2019-03-29T04:22:53.849Z,12.82
2019-03-29T04:25:22.824Z,12.82
2019-03-29T04:27:51.658Z,12.05
2019-03-29T04:30:20.629Z,13.68
2019-03-29T04:32:49.512Z,15.70
2019-03-29T04:35:18.333Z,13.08
2019-03-29T04:37:47.193Z,11.10
2019-03-29T04:40:16.021Z,12.97
2019-03-29T04:42:44.901Z,15.05
2019-03-29T04:45:13.715Z,13.75
2019-03-29T04:47:42.505Z,15.88
2019-03-29T04:50:11.381Z,18.25
2019-03-29T04:52:40.223Z,16.17
2019-03-29T04:55:09.318Z,20.57
2019-03-29T04:57:38.119Z,18.45
2019-03-29T05:00:08.260Z,18.87
2019-03-29T05:02:37.299Z,20.00
2019-03-29T05:05:06.198Z,23.50
2019-03-29T05:07:36.972Z,18.90
2019-03-29T05:10:19.968Z,19.23
2019-03-29T05:12:36.505Z,19.62
2019-03-29T05:15:05.519Z,20.05
2019-03-29T05:17:34.393Z,21.82
2019-03-29T05:20:03.331Z,18.62
2019-03-29T05:22:32.203Z,22.30
2019-03-29T05:25:01.067Z,18.90
2019-03-29T05:27:29.982Z,22.48
2019-03-29T05:29:58.865Z,23.02
2019-03-29T05:32:28.667Z,20.30
2019-03-29T05:34:57.460Z,22.17
2019-03-29T05:37:26.361Z,20.65
2019-03-29T05:39:55.315Z,23.62
2019-03-29T05:42:24.225Z,23.02
2019-03-29T05:44:53.102Z,24.35
2019-03-29T05:47:21.991Z,19.35
2019-03-29T05:49:50.864Z,19.95
2019-03-29T05:52:19.757Z,23.02
2019-03-29T05:54:48.773Z,24.45
2019-03-29T05:57:17.654Z,20.65
2019-03-29T05:59:46.535Z,19.32
2019-03-29T06:02:15.438Z,19.32
2019-03-29T06:04:44.311Z,22.85
2019-03-29T06:07:13.250Z,18.62
2019-03-29T06:09:42.130Z,19.62
2019-03-29T06:12:11.105Z,22.77
2019-03-29T06:14:39.979Z,19.48
2019-03-29T06:17:08.859Z,18.92
2019-03-29T06:19:37.753Z,20.57
2019-03-29T06:22:06.586Z,20.60
2019-03-29T06:24:35.486Z,20.20
2019-03-29T06:27:04.397Z,23.70
2019-03-29T06:29:33.445Z,18.82
2019-03-29T06:32:02.304Z,20.62
2019-03-29T06:34:31.120Z,22.62
2019-03-29T06:37:00.623Z,20.08
2019-03-29T06:39:29.608Z,18.50
2019-03-29T06:41:58.492Z,20.17
2019-03-29T06:44:27.442Z,22.50
2019-03-29T06:46:56.326Z,19.90
2019-03-29T06:49:25.262Z,18.65
2019-03-29T06:51:54.245Z,18.62
2019-03-29T06:54:23.081Z,17.98
2019-03-29T06:56:51.965Z,20.50
2019-03-29T06:59:20.980Z,18.23
2019-03-29T07:01:49.908Z,18.35
2019-03-29T07:04:18.788Z,20.05
2019-03-29T07:06:47.750Z,20.70
2019-03-29T07:09:16.639Z,20.70
2019-03-29T07:11:45.558Z,21.00
2019-03-29T07:14:14.437Z,23.40
2019-03-29T07:16:43.319Z,22.42
2019-03-29T07:19:12.131Z,22.52
2019-03-29T07:21:41.012Z,25.40
2019-03-29T07:24:09.901Z,24.47
2019-03-29T07:26:38.796Z,26.33
2019-03-29T07:29:07.692Z,22.32
2019-03-29T07:31:36.521Z,26.77
2019-03-29T07:34:05.324Z,26.48
2019-03-29T07:36:34.177Z,25.40
2019-03-29T07:39:04.371Z,24.77
2019-03-29T07:41:33.332Z,24.18
2019-03-29T07:44:02.198Z,25.33
2019-03-29T07:46:31.116Z,31.33
2019-03-29T07:49:00.035Z,33.20
2019-03-29T07:51:28.940Z,30.70
2019-03-29T07:53:57.966Z,25.62
2019-03-29T07:56:26.766Z,27.62
2019-03-29T07:58:55.674Z,27.75
2019-03-29T08:01:24.622Z,25.68
2019-03-29T08:03:54.509Z,21.77
2019-03-29T08:06:23.480Z,22.52
2019-03-29T08:08:52.307Z,24.70
2019-03-29T08:11:26.427Z,20.92
2019-03-29T08:13:51.737Z,18.70
2019-03-29T08:16:20.661Z,16.95
2019-03-29T08:18:49.562Z,17.20
2019-03-29T08:21:18.496Z,22.58
2019-03-29T08:23:47.435Z,19.55
2019-03-29T08:26:16.874Z,20.45
2019-03-29T08:28:46.744Z,20.65
2019-03-29T08:31:15.970Z,17.87
2019-03-29T08:33:45.075Z,21.05
2019-03-29T08:36:14.944Z,21.48
2019-03-29T08:38:43.966Z,20.97
2019-03-29T08:41:12.927Z,18.15
2019-03-29T08:43:41.927Z,20.27
2019-03-29T08:46:10.861Z,19.52
2019-03-29T08:48:40.933Z,20.80
2019-03-29T08:51:09.843Z,20.10
2019-03-29T08:53:38.664Z,24.98
2019-03-29T08:56:09.143Z,22.40
2019-03-29T08:58:39.047Z,20.62
2019-03-29T09:01:08.040Z,21.30
2019-03-29T09:03:37.659Z,18.75
2019-03-29T09:06:08.157Z,18.73
2019-03-29T09:08:37.057Z,19.62
2019-03-29T09:11:07.599Z,21.60
2019-03-29T09:13:36.751Z,24.27
2019-03-29T09:16:05.717Z,22.05
2019-03-29T09:18:34.613Z,22.80
2019-03-29T09:21:03.527Z,22.05
2019-03-29T09:23:32.334Z,20.77
2019-03-29T09:26:01.177Z,23.52
2019-03-29T09:28:32.784Z,21.95
2019-03-29T09:31:00.594Z,26.10
2019-03-29T09:33:29.501Z,23.95
2019-03-29T09:35:58.442Z,25.48
2019-03-29T09:38:27.390Z,23.05
2019-03-29T09:40:59.089Z,21.37
2019-03-29T09:43:27.011Z,23.98
2019-03-29T09:45:55.931Z,24.47
2019-03-29T09:48:24.803Z,25.23
2019-03-29T09:50:53.702Z,25.32
2019-03-29T09:53:22.534Z,22.77
2019-03-29T09:55:53.407Z,24.00
2019-03-29T09:58:21.912Z,27.32
2019-03-29T10:00:50.827Z,22.95
2019-03-29T10:03:19.876Z,24.30
2019-03-29T10:05:48.770Z,22.58
2019-03-29T10:08:17.609Z,27.17
2019-03-29T10:10:46.440Z,21.52
2019-03-29T10:13:15.321Z,23.10
2019-03-29T10:15:44.147Z,23.25
2019-03-29T10:18:13.078Z,20.37
2019-03-29T10:20:42.033Z,22.00
2019-03-29T10:23:10.953Z,22.85
2019-03-29T10:25:39.855Z,23.67
2019-03-29T10:28:08.754Z,24.25
2019-03-29T10:30:40.938Z,27.40
2019-03-29T10:33:10.149Z,23.98
2019-03-29T10:35:50.823Z,23.92
2019-03-29T10:38:10.078Z,23.15
2019-03-29T10:40:38.964Z,27.65
2019-03-29T10:43:07.775Z,21.55
2019-03-29T10:45:40.110Z,25.00
2019-03-29T10:48:07.332Z,24.35
2019-03-29T10:50:36.258Z,25.23
2019-03-29T10:53:05.144Z,20.80
2019-03-29T10:55:34.044Z,23.77
2019-03-29T10:58:02.949Z,22.70
2019-03-29T11:00:35.698Z,27.15
2019-03-29T11:03:04.961Z,25.08
2019-03-29T11:05:34.002Z,27.52
2019-03-29T11:08:02.935Z,25.43
2019-03-29T11:10:32.136Z,24.87
2019-03-29T11:13:11.831Z,26.73
2019-03-29T11:15:31.551Z,24.57
2019-03-29T11:18:00.457Z,26.17
2019-03-29T11:20:29.330Z,24.40
2019-03-29T11:22:58.258Z,24.85
2019-03-29T11:25:27.166Z,23.73
2019-03-29T11:27:56.054Z,21.97
2019-03-29T11:30:25.166Z,20.17
2019-03-29T11:32:54.156Z,19.98
2019-03-29T11:35:23.218Z,23.65
2019-03-29T11:37:52.187Z,26.73
2019-03-29T11:40:21.071Z,21.57
2019-03-29T11:42:49.981Z,23.80
2019-03-29T11:45:19.182Z,20.60
2019-03-29T11:47:48.507Z,24.40
2019-03-29T11:50:17.613Z,21.68
2019-03-29T11:52:46.488Z,22.05
2019-03-29T11:55:15.298Z,21.10
2019-03-29T11:57:44.231Z,22.67
2019-03-29T12:00:13.288Z,21.65
2019-03-29T12:02:42.200Z,23.02
2019-03-29T12:05:11.028Z,21.80
2019-03-29T12:07:39.816Z,20.45
2019-03-29T12:10:09.130Z,24.32
2019-03-29T12:12:38.007Z,21.30
2019-03-29T12:15:08.114Z,22.25
2019-03-29T12:17:37.014Z,22.90
2019-03-29T12:20:06.137Z,20.75
2019-03-29T12:22:35.132Z,19.77
2019-03-29T12:25:04.302Z,19.07
2019-03-29T12:27:33.230Z,20.12
2019-03-29T12:30:02.132Z,24.10
2019-03-29T12:32:31.064Z,24.70
2019-03-29T12:34:59.948Z,25.23
2019-03-29T12:37:28.849Z,23.05
2019-03-29T12:39:57.678Z,22.25
2019-03-29T12:42:26.626Z,27.60
2019-03-29T12:44:55.536Z,21.68
2019-03-29T12:47:24.466Z,22.02
2019-03-29T12:49:53.328Z,23.50
2019-03-29T12:52:22.237Z,24.13
2019-03-29T12:54:51.470Z,20.72
2019-03-29T12:57:20.534Z,28.98
2019-03-29T12:59:49.762Z,23.70
2019-03-29T13:02:18.595Z,26.48
2019-03-29T13:04:47.862Z,21.60
2019-03-29T13:07:16.855Z,22.32
2019-03-29T13:09:45.881Z,25.10
2019-03-29T13:12:14.793Z,24.18
2019-03-29T13:14:43.691Z,25.00
2019-03-29T13:17:12.819Z,23.10
2019-03-29T13:19:41.782Z,19.48
2019-03-29T13:22:11.536Z,25.43
2019-03-29T13:24:40.896Z,23.75
2019-03-29T13:27:09.918Z,22.37
2019-03-29T13:29:38.854Z,24.05
2019-03-29T13:32:08.326Z,23.52
2019-03-29T13:34:37.315Z,21.40
2019-03-29T13:37:06.228Z,22.10
2019-03-29T13:39:35.095Z,20.00
2019-03-29T13:42:03.987Z,22.98
2019-03-29T13:44:32.903Z,20.95
2019-03-29T13:47:01.815Z,23.22
2019-03-29T13:49:30.773Z,23.40
2019-03-29T13:51:59.655Z,23.62
2019-03-29T13:54:28.521Z,24.37
2019-03-29T13:56:57.541Z,23.77
2019-03-29T13:59:26.924Z,28.00
2019-03-29T14:01:55.843Z,25.35
2019-03-29T14:04:24.765Z,24.50
2019-03-29T14:06:53.665Z,22.95
2019-03-29T14:09:22.572Z,23.83
2019-03-29T14:11:51.477Z,25.55
2019-03-29T14:14:20.409Z,25.52
2019-03-29T14:16:49.416Z,26.20
2019-03-29T14:19:18.647Z,26.85
2019-03-29T14:21:47.698Z,22.67
2019-03-29T14:24:16.608Z,23.83
2019-03-29T14:26:45.433Z,23.80
2019-03-29T14:29:14.348Z,25.10
2019-03-29T14:31:43.243Z,22.45
2019-03-29T14:34:12.195Z,25.32
2019-03-29T14:36:41.266Z,25.15
2019-03-29T14:39:10.170Z,25.02
2019-03-29T14:41:39.082Z,23.40
2019-03-29T14:44:08.312Z,22.87
2019-03-29T14:46:37.237Z,24.15
2019-03-29T14:49:06.124Z,21.57
2019-03-29T14:51:34.947Z,22.17
2019-03-29T14:54:04.731Z,23.07
2019-03-29T14:56:33.611Z,21.65
2019-03-29T14:59:02.553Z,24.15
2019-03-29T15:01:32.480Z,25.08
2019-03-29T15:04:01.386Z,25.62
2019-03-29T15:06:31.264Z,21.85
2019-03-29T15:09:00.252Z,22.45
2019-03-29T15:11:29.207Z,26.00
2019-03-29T15:13:58.149Z,23.85
2019-03-29T15:16:27.054Z,22.87
2019-03-29T15:18:55.976Z,23.50
2019-03-29T15:21:24.916Z,25.37
2019-03-29T15:23:53.752Z,21.27
2019-03-29T15:26:22.564Z,27.70
2019-03-29T15:28:51.486Z,23.95
2019-03-29T15:31:20.498Z,24.80
2019-03-29T15:33:49.472Z,20.70
2019-03-29T15:36:18.368Z,21.77
2019-03-29T15:38:47.294Z,26.37
2019-03-29T15:41:16.136Z,27.42
2019-03-29T15:43:45.088Z,24.05
2019-03-29T15:46:13.997Z,24.05
2019-03-29T15:48:42.938Z,21.85
2019-03-29T15:51:11.802Z,24.43
2019-03-29T15:53:40.727Z,23.32
2019-03-29T15:56:09.646Z,24.43
2019-03-29T15:58:38.542Z,25.48
2019-03-29T16:01:07.624Z,20.92
2019-03-29T16:03:36.524Z,22.23
2019-03-29T16:06:05.438Z,23.52
2019-03-29T16:08:34.336Z,24.25
2019-03-29T16:11:03.326Z,25.00
2019-03-29T16:13:32.218Z,22.98
2019-03-29T16:16:01.219Z,22.35
2019-03-29T16:18:30.138Z,21.82
2019-03-29T16:20:58.948Z,20.75
2019-03-29T16:23:27.828Z,18.85
2019-03-29T16:25:56.750Z,22.95
2019-03-29T16:28:25.699Z,24.87
2019-03-29T16:30:54.655Z,24.00
2019-03-29T16:33:23.641Z,23.95
2019-03-29T16:35:52.574Z,24.52
2019-03-29T16:38:21.451Z,26.62
2019-03-29T16:40:50.406Z,24.30
2019-03-29T16:43:19.384Z,22.85
2019-03-29T16:45:48.547Z,23.55
2019-03-29T16:48:17.564Z,25.62
2019-03-29T16:50:46.484Z,24.02
2019-03-29T16:53:15.402Z,26.42
2019-03-29T16:55:44.366Z,21.52
2019-03-29T16:58:13.395Z,24.15
2019-03-29T17:00:42.288Z,22.27
2019-03-29T17:03:11.131Z,18.42
2019-03-29T17:05:42.141Z,24.75
2019-03-29T17:08:10.602Z,21.00
2019-03-29T17:10:39.535Z,21.50
2019-03-29T17:13:08.456Z,19.23
2019-03-29T17:15:37.300Z,19.77
2019-03-29T17:18:06.200Z,20.75
2019-03-29T17:20:35.136Z,21.52
2019-03-29T17:23:04.069Z,21.93
2019-03-29T17:25:32.991Z,23.10
2019-03-29T17:28:01.952Z,22.73
2019-03-29T17:33:22.374Z,24.50
2019-03-29T17:35:51.113Z,22.50
2019-03-29T17:38:20.061Z,23.00
2019-03-29T17:40:49.076Z,20.00
2019-03-29T17:43:18.312Z,22.75
2019-03-29T17:45:47.327Z,24.12
2019-03-29T17:48:16.411Z,24.82
2019-03-29T17:50:45.460Z,20.62
2019-03-29T17:53:16.072Z,25.12
2019-03-29T17:55:45.116Z,22.02
2019-03-29T17:58:14.060Z,23.25
2019-03-29T18:00:42.995Z,24.63
2019-03-29T18:03:11.842Z,22.27
2019-03-29T18:05:40.880Z,24.47
2019-03-29T18:08:09.811Z,29.10
2019-03-29T18:10:38.838Z,27.55
2019-03-29T18:13:07.838Z,25.82
2019-03-29T18:15:36.770Z,24.67
2019-03-29T18:18:05.719Z,24.05
2019-03-29T18:20:34.990Z,23.55
2019-03-29T18:23:03.951Z,25.95
2019-03-29T18:25:32.926Z,27.93
2019-03-29T18:28:01.821Z,23.38
2019-03-29T18:30:40.647Z,24.98
2019-03-29T18:33:09.557Z,28.27
2019-03-29T18:35:38.506Z,25.65
2019-03-29T18:38:07.538Z,26.85
2019-03-29T18:40:36.479Z,25.75
2019-03-29T18:43:05.435Z,23.77
2019-03-29T18:45:35.356Z,21.90
2019-03-29T18:48:04.389Z,26.42
2019-03-29T18:50:33.354Z,22.35
2019-03-29T18:53:02.294Z,25.10
2019-03-29T18:55:31.258Z,22.82
2019-03-29T18:58:00.230Z,24.00
2019-03-29T19:00:29.989Z,24.18
2019-03-29T19:02:59.003Z,27.20
2019-03-29T19:05:28.062Z,26.37
2019-03-29T19:07:57.066Z,27.22
2019-03-29T19:10:25.991Z,23.52
2019-03-29T19:12:54.961Z,26.20
2019-03-29T19:15:23.959Z,25.65
2019-03-29T19:17:53.020Z,25.30
2019-03-29T19:20:27.943Z,25.77
2019-03-29T19:22:52.579Z,26.52
2019-03-29T19:25:21.508Z,25.82
2019-03-29T19:27:50.471Z,27.52
2019-03-29T19:30:19.787Z,23.35
2019-03-29T19:32:48.722Z,27.20
2019-03-29T19:35:17.683Z,26.42
2019-03-29T19:37:46.648Z,28.27
2019-03-29T19:40:15.600Z,30.57
2019-03-29T19:42:45.676Z,29.07
2019-03-29T19:45:14.801Z,25.97
2019-03-29T19:47:43.756Z,30.30
2019-03-29T19:50:12.716Z,26.75
2019-03-29T19:52:41.737Z,29.07
2019-03-29T19:55:11.277Z,26.75
2019-03-29T19:57:41.315Z,29.75
2019-03-29T20:00:11.091Z,25.95
2019-03-29T20:02:40.115Z,25.45
2019-03-29T20:05:12.549Z,27.15
2019-03-29T20:07:42.005Z,30.70
2019-03-29T20:10:11.223Z,28.23
2019-03-29T20:12:40.205Z,31.93
2019-03-29T20:15:09.275Z,32.93
2019-03-29T20:17:38.287Z,30.40
2019-03-29T20:20:07.288Z,32.10
2019-03-29T20:22:36.326Z,30.17
2019-03-29T20:25:05.905Z,28.55
2019-03-29T20:27:34.936Z,32.38
2019-03-29T20:30:04.217Z,35.58
2019-03-29T20:32:33.198Z,31.87
2019-03-29T20:35:02.134Z,31.45
2019-03-29T20:37:31.458Z,29.72
2019-03-29T20:40:00.390Z,34.92
2019-03-29T20:42:29.391Z,32.55
2019-03-29T20:44:58.349Z,30.72
2019-03-29T20:47:41.090Z,31.50
2019-03-29T20:49:58.033Z,31.80
2019-03-29T20:52:27.171Z,32.17
2019-03-29T20:54:56.151Z,31.73
2019-03-29T20:57:25.161Z,31.37
2019-03-29T20:59:54.158Z,35.48
2019-03-29T21:02:23.105Z,36.08
2019-03-29T21:04:52.080Z,36.75
2019-03-29T21:07:21.460Z,38.48
2019-03-29T21:09:50.534Z,33.73
2019-03-29T21:12:19.447Z,41.55
2019-03-29T21:14:48.534Z,31.45
2019-03-29T21:17:17.477Z,38.65
2019-03-29T21:19:46.478Z,36.80
2019-03-29T21:22:15.526Z,36.75
2019-03-29T21:24:44.520Z,32.83
2019-03-29T21:27:13.462Z,34.50
2019-03-29T21:29:42.453Z,34.18
2019-03-29T21:32:11.417Z,34.95
2019-03-29T21:34:40.375Z,36.70
2019-03-29T21:37:09.314Z,36.00
2019-03-29T21:39:38.232Z,37.53
2019-03-29T21:42:07.261Z,41.88
2019-03-29T21:44:36.325Z,39.48
2019-03-29T21:47:05.266Z,41.13
2019-03-29T21:49:34.234Z,36.88
2019-03-29T21:52:03.248Z,36.95
2019-03-29T21:54:32.190Z,41.25
2019-03-29T21:57:01.236Z,42.48
2019-03-29T21:59:30.628Z,40.98
2019-03-29T22:01:59.680Z,41.20
2019-03-29T22:04:28.661Z,40.70
2019-03-29T22:06:57.608Z,47.13
2019-03-29T22:09:36.858Z,39.00
2019-03-29T22:11:57.138Z,38.63
2019-03-29T22:14:26.093Z,40.20
2019-03-29T22:16:55.033Z,39.18
2019-03-29T22:19:23.962Z,39.25
2019-03-29T22:21:52.906Z,38.65
2019-03-29T22:24:21.809Z,38.10
2019-03-29T22:26:51.794Z,37.13
2019-03-29T22:29:20.780Z,41.28
2019-03-29T22:31:49.723Z,41.02
2019-03-29T22:34:18.661Z,44.55
2019-03-29T22:36:47.566Z,39.85
2019-03-29T22:39:17.467Z,40.80
2019-03-29T22:41:46.472Z,35.68
2019-03-29T22:44:15.477Z,39.27
2019-03-29T22:46:44.391Z,35.28
2019-03-29T22:49:13.396Z,38.17
2019-03-29T22:51:42.324Z,35.73
2019-03-29T22:54:11.264Z,38.67
2019-03-29T22:56:40.275Z,37.03
2019-03-29T22:59:09.331Z,34.70
2019-03-29T23:01:40.327Z,38.28
2019-03-29T23:04:09.258Z,40.12
2019-03-29T23:06:38.192Z,35.48
2019-03-29T23:09:07.248Z,38.20
2019-03-29T23:11:36.187Z,37.08
2019-03-29T23:14:05.183Z,37.13
2019-03-29T23:16:34.095Z,38.55
2019-03-29T23:19:06.616Z,38.55
2019-03-29T23:21:33.668Z,38.92
2019-03-29T23:24:02.604Z,41.95
2019-03-29T23:26:31.606Z,41.35
2019-03-29T23:29:00.543Z,45.67
2019-03-29T23:31:29.465Z,39.55
2019-03-29T23:33:58.445Z,40.55
2019-03-29T23:36:27.379Z,40.15
2019-03-29T23:38:56.461Z,40.78
2019-03-29T23:41:25.375Z,41.25
2019-03-29T23:43:54.320Z,39.40
2019-03-29T23:46:23.233Z,40.80
2019-03-29T23:48:52.195Z,43.70
2019-03-29T23:51:21.130Z,43.30
2019-03-29T23:53:50.039Z,39.73
2019-03-29T23:56:18.979Z,40.30
2019-03-29T23:58:48.263Z,37.23
